sensor_id;sensor_type;location;lat;lon;timestamp;temperature;humidity
72355;SHT30;60314;55.040;73.076;2023-01-30T00:04:39;-12.68;75.79
72355;SHT30;60314;55.040;73.076;2023-01-30T00:09:41;-12.85;75.81
72355;SHT30;60314;55.040;73.076;2023-01-30T00:14:42;-12.88;75.75
72355;SHT30;60314;55.040;73.076;2023-01-30T00:19:43;-12.95;75.76
72355;SHT30;60314;55.040;73.076;2023-01-30T00:24:49;-12.99;75.10
72355;SHT30;60314;55.040;73.076;2023-01-30T00:29:50;-13.09;75.01
72355;SHT30;60314;55.040;73.076;2023-01-30T00:34:52;-13.17;75.00
72355;SHT30;60314;55.040;73.076;2023-01-30T00:39:58;-13.30;74.26
72355;SHT30;60314;55.040;73.076;2023-01-30T00:45:08;-13.39;74.52
72355;SHT30;60314;55.040;73.076;2023-01-30T00:50:58;-13.48;74.46
72355;SHT30;60314;55.040;73.076;2023-01-30T00:56:09;-13.40;74.12
72355;SHT30;60314;55.040;73.076;2023-01-30T01:01:20;-13.48;74.38
72355;SHT30;60314;55.040;73.076;2023-01-30T01:06:23;-13.74;72.34
72355;SHT30;60314;55.040;73.076;2023-01-30T01:11:24;-13.91;69.61
72355;SHT30;60314;55.040;73.076;2023-01-30T01:16:26;-14.15;69.19
72355;SHT30;60314;55.040;73.076;2023-01-30T01:21:28;-14.37;68.78
72355;SHT30;60314;55.040;73.076;2023-01-30T01:26:29;-14.56;67.23
72355;SHT30;60314;55.040;73.076;2023-01-30T01:31:31;-14.75;67.83
72355;SHT30;60314;55.040;73.076;2023-01-30T01:36:33;-14.75;69.22
72355;SHT30;60314;55.040;73.076;2023-01-30T01:41:34;-14.92;67.30
72355;SHT30;60314;55.040;73.076;2023-01-30T01:46:50;-15.15;69.09
72355;SHT30;60314;55.040;73.076;2023-01-30T01:52:03;-15.01;70.00
72355;SHT30;60314;55.040;73.076;2023-01-30T01:57:20;-14.88;71.19
72355;SHT30;60314;55.040;73.076;2023-01-30T02:02:23;-14.99;68.02
72355;SHT30;60314;55.040;73.076;2023-01-30T02:12:50;-15.36;67.74
72355;SHT30;60314;55.040;73.076;2023-01-30T02:17:56;-15.44;68.19
72355;SHT30;60314;55.040;73.076;2023-01-30T02:49:47;-15.63;66.90
72355;SHT30;60314;55.040;73.076;2023-01-30T02:54:52;-15.80;66.86
72355;SHT30;60314;55.040;73.076;2023-01-30T03:00:04;-15.82;69.54
72355;SHT30;60314;55.040;73.076;2023-01-30T03:05:10;-15.56;73.82
72355;SHT30;60314;55.040;73.076;2023-01-30T03:16:08;-15.02;75.01
72355;SHT30;60314;55.040;73.076;2023-01-30T03:21:10;-14.44;77.19
72355;SHT30;60314;55.040;73.076;2023-01-30T03:26:17;-14.08;76.25
72355;SHT30;60314;55.040;73.076;2023-01-30T03:31:20;-13.74;75.61
72355;SHT30;60314;55.040;73.076;2023-01-30T03:36:22;-13.54;75.47
72355;SHT30;60314;55.040;73.076;2023-01-30T03:41:30;-13.24;74.94
72355;SHT30;60314;55.040;73.076;2023-01-30T03:46:31;-13.02;74.18
72355;SHT30;60314;55.040;73.076;2023-01-30T03:51:42;-12.78;73.81
72355;SHT30;60314;55.040;73.076;2023-01-30T03:56:43;-12.71;73.15
72355;SHT30;60314;55.040;73.076;2023-01-30T04:01:45;-12.69;72.73
72355;SHT30;60314;55.040;73.076;2023-01-30T04:06:46;-12.69;72.51
72355;SHT30;60314;55.040;73.076;2023-01-30T04:11:58;-12.60;72.94
72355;SHT30;60314;55.040;73.076;2023-01-30T04:17:13;-12.53;72.48
72355;SHT30;60314;55.040;73.076;2023-01-30T04:22:33;-12.34;72.96
72355;SHT30;60314;55.040;73.076;2023-01-30T04:27:40;-12.34;73.01
72355;SHT30;60314;55.040;73.076;2023-01-30T04:32:56;-12.14;72.97
72355;SHT30;60314;55.040;73.076;2023-01-30T04:37:57;-11.87;72.69
72355;SHT30;60314;55.040;73.076;2023-01-30T04:43:04;-11.59;72.63
72355;SHT30;60314;55.040;73.076;2023-01-30T04:48:29;-11.44;72.59
72355;SHT30;60314;55.040;73.076;2023-01-30T04:53:34;-11.10;72.43
72355;SHT30;60314;55.040;73.076;2023-01-30T04:58:35;-10.83;72.14
72355;SHT30;60314;55.040;73.076;2023-01-30T05:03:37;-10.58;72.16
72355;SHT30;60314;55.040;73.076;2023-01-30T05:08:38;-10.53;72.68
72355;SHT30;60314;55.040;73.076;2023-01-30T05:13:41;-10.25;71.96
72355;SHT30;60314;55.040;73.076;2023-01-30T05:18:53;-9.94;71.71
72355;SHT30;60314;55.040;73.076;2023-01-30T05:23:55;-9.81;71.48
72355;SHT30;60314;55.040;73.076;2023-01-30T05:29:06;-9.62;71.59
72355;SHT30;60314;55.040;73.076;2023-01-30T05:34:09;-9.39;71.26
72355;SHT30;60314;55.040;73.076;2023-01-30T05:39:11;-9.12;71.45
72355;SHT30;60314;55.040;73.076;2023-01-30T05:44:12;-9.07;72.07
72355;SHT30;60314;55.040;73.076;2023-01-30T05:49:18;-8.85;71.79
72355;SHT30;60314;55.040;73.076;2023-01-30T05:54:20;-8.74;70.86
72355;SHT30;60314;55.040;73.076;2023-01-30T05:59:21;-8.47;70.50
72355;SHT30;60314;55.040;73.076;2023-01-30T06:04:22;-8.28;70.19
72355;SHT30;60314;55.040;73.076;2023-01-30T06:09:34;-8.13;69.86
72355;SHT30;60314;55.040;73.076;2023-01-30T06:14:35;-8.02;69.69
72355;SHT30;60314;55.040;73.076;2023-01-30T06:19:47;-7.92;69.72
72355;SHT30;60314;55.040;73.076;2023-01-30T06:24:58;-7.84;69.53
72355;SHT30;60314;55.040;73.076;2023-01-30T06:29:59;-7.58;69.56
72355;SHT30;60314;55.040;73.076;2023-01-30T06:35:01;-7.78;69.71
72355;SHT30;60314;55.040;73.076;2023-01-30T06:40:03;-7.90;70.40
72355;SHT30;60314;55.040;73.076;2023-01-30T06:45:10;-7.78;70.86
72355;SHT30;60314;55.040;73.076;2023-01-30T06:50:12;-7.54;71.13
72355;SHT30;60314;55.040;73.076;2023-01-30T06:55:19;-7.29;70.35
72355;SHT30;60314;55.040;73.076;2023-01-30T07:01:07;-6.96;69.80
72355;SHT30;60314;55.040;73.076;2023-01-30T07:06:08;-6.75;69.68
72355;SHT30;60314;55.040;73.076;2023-01-30T07:11:09;-6.52;69.10
72355;SHT30;60314;55.040;73.076;2023-01-30T07:16:16;-6.57;69.39
72355;SHT30;60314;55.040;73.076;2023-01-30T07:21:18;-6.64;69.87
72355;SHT30;60314;55.040;73.076;2023-01-30T07:26:19;-6.72;70.48
72355;SHT30;60314;55.040;73.076;2023-01-30T07:31:27;-6.85;70.87
72355;SHT30;60314;55.040;73.076;2023-01-30T07:36:28;-6.91;71.67
72355;SHT30;60314;55.040;73.076;2023-01-30T07:41:33;-6.67;71.06
72355;SHT30;60314;55.040;73.076;2023-01-30T07:46:45;-6.42;70.88
72355;SHT30;60314;55.040;73.076;2023-01-30T07:51:48;-6.48;71.42
72355;SHT30;60314;55.040;73.076;2023-01-30T07:56:49;-6.14;70.97
72355;SHT30;60314;55.040;73.076;2023-01-30T08:01:50;-5.81;70.74
72355;SHT30;60314;55.040;73.076;2023-01-30T08:07:01;-5.76;70.18
72355;SHT30;60314;55.040;73.076;2023-01-30T08:12:02;-5.79;70.75
72355;SHT30;60314;55.040;73.076;2023-01-30T08:17:06;-5.63;70.35
72355;SHT30;60314;55.040;73.076;2023-01-30T08:22:07;-5.45;69.41
72355;SHT30;60314;55.040;73.076;2023-01-30T08:27:21;-5.52;69.26
72355;SHT30;60314;55.040;73.076;2023-01-30T08:32:22;-5.51;69.79
72355;SHT30;60314;55.040;73.076;2023-01-30T08:37:23;-5.39;69.93
72355;SHT30;60314;55.040;73.076;2023-01-30T08:42:25;-5.30;68.75
72355;SHT30;60314;55.040;73.076;2023-01-30T08:47:26;-5.27;68.29
72355;SHT30;60314;55.040;73.076;2023-01-30T08:52:33;-5.22;68.60
72355;SHT30;60314;55.040;73.076;2023-01-30T08:57:34;-5.22;68.34
72355;SHT30;60314;55.040;73.076;2023-01-30T09:02:36;-5.39;68.87
72355;SHT30;60314;55.040;73.076;2023-01-30T09:07:37;-5.47;69.99
72355;SHT30;60314;55.040;73.076;2023-01-30T09:12:44;-5.55;70.41
72355;SHT30;60314;55.040;73.076;2023-01-30T09:17:46;-5.61;71.20
72355;SHT30;60314;55.040;73.076;2023-01-30T09:22:58;-5.59;70.24
72355;SHT30;60314;55.040;73.076;2023-01-30T09:28:04;-5.68;70.98
72355;SHT30;60314;55.040;73.076;2023-01-30T09:33:10;-5.85;71.09
72355;SHT30;60314;55.040;73.076;2023-01-30T09:38:11;-5.83;71.90
72355;SHT30;60314;55.040;73.076;2023-01-30T09:48:31;-5.68;70.06
72355;SHT30;60314;55.040;73.076;2023-01-30T09:53:47;-5.52;69.47
72355;SHT30;60314;55.040;73.076;2023-01-30T10:09:23;-5.45;69.53
72355;SHT30;60314;55.040;73.076;2023-01-30T10:25:03;-5.55;70.07
72355;SHT30;60314;55.040;73.076;2023-01-30T10:30:15;-5.61;70.47
72355;SHT30;60314;55.040;73.076;2023-01-30T10:36:00;-5.62;70.08
72355;SHT30;60314;55.040;73.076;2023-01-30T10:57:03;-6.14;71.43
72355;SHT30;60314;55.040;73.076;2023-01-30T11:02:13;-6.41;70.25
72355;SHT30;60314;55.040;73.076;2023-01-30T11:07:16;-6.58;70.33
72355;SHT30;60314;55.040;73.076;2023-01-30T11:12:28;-6.61;70.68
72355;SHT30;60314;55.040;73.076;2023-01-30T11:17:31;-6.65;70.80
72355;SHT30;60314;55.040;73.076;2023-01-30T11:22:33;-6.68;71.00
72355;SHT30;60314;55.040;73.076;2023-01-30T11:27:36;-6.75;71.52
72355;SHT30;60314;55.040;73.076;2023-01-30T11:32:38;-6.65;71.05
72355;SHT30;60314;55.040;73.076;2023-01-30T11:37:44;-6.74;71.34
72355;SHT30;60314;55.040;73.076;2023-01-30T11:43:03;-6.81;71.43
72355;SHT30;60314;55.040;73.076;2023-01-30T11:48:10;-6.91;71.51
72355;SHT30;60314;55.040;73.076;2023-01-30T11:58:30;-7.23;71.11
72355;SHT30;60314;55.040;73.076;2023-01-30T12:03:32;-7.33;70.99
72355;SHT30;60314;55.040;73.076;2023-01-30T12:08:45;-7.39;71.43
72355;SHT30;60314;55.040;73.076;2023-01-30T12:14:08;-7.41;71.28
72355;SHT30;60314;55.040;73.076;2023-01-30T12:19:23;-7.44;70.91
72355;SHT30;60314;55.040;73.076;2023-01-30T12:24:27;-7.61;70.79
72355;SHT30;60314;55.040;73.076;2023-01-30T12:29:44;-7.78;71.71
72355;SHT30;60314;55.040;73.076;2023-01-30T12:34:51;-7.88;72.48
72355;SHT30;60314;55.040;73.076;2023-01-30T13:00:30;-8.21;72.91
72355;SHT30;60314;55.040;73.076;2023-01-30T13:22:12;-8.42;73.41
72355;SHT30;60314;55.040;73.076;2023-01-30T13:27:18;-8.42;73.13
72355;SHT30;60314;55.040;73.076;2023-01-30T13:32:37;-8.50;72.82
72355;SHT30;60314;55.040;73.076;2023-01-30T13:37:51;-8.60;72.48
72355;SHT30;60314;55.040;73.076;2023-01-30T13:58:44;-9.03;72.93
72355;SHT30;60314;55.040;73.076;2023-01-30T14:03:46;-9.11;72.86
72355;SHT30;60314;55.040;73.076;2023-01-30T14:08:53;-9.24;72.83
72355;SHT30;60314;55.040;73.076;2023-01-30T14:24:30;-9.22;71.99
72355;SHT30;60314;55.040;73.076;2023-01-30T14:34:40;-9.42;72.63
72355;SHT30;60314;55.040;73.076;2023-01-30T14:39:52;-9.63;72.44
72355;SHT30;60314;55.040;73.076;2023-01-30T14:44:56;-9.69;72.39
72355;SHT30;60314;55.040;73.076;2023-01-30T14:49:57;-9.74;72.23
72355;SHT30;60314;55.040;73.076;2023-01-30T14:54:59;-9.71;71.29
72355;SHT30;60314;55.040;73.076;2023-01-30T15:00:16;-9.69;71.01
72355;SHT30;60314;55.040;73.076;2023-01-30T15:05:19;-9.91;70.53
72355;SHT30;60314;55.040;73.076;2023-01-30T15:11:07;-10.11;71.04
72355;SHT30;60314;55.040;73.076;2023-01-30T15:26:40;-10.27;71.01
72355;SHT30;60314;55.040;73.076;2023-01-30T15:36:56;-10.31;70.68
72355;SHT30;60314;55.040;73.076;2023-01-30T15:42:04;-10.37;70.98
72355;SHT30;60314;55.040;73.076;2023-01-30T15:52:31;-10.55;70.83
72355;SHT30;60314;55.040;73.076;2023-01-30T15:57:37;-10.59;71.57
72355;SHT30;60314;55.040;73.076;2023-01-30T16:02:40;-10.56;71.10
72355;SHT30;60314;55.040;73.076;2023-01-30T16:07:43;-10.52;71.01
72355;SHT30;60314;55.040;73.076;2023-01-30T16:12:45;-10.58;70.96
72355;SHT30;60314;55.040;73.076;2023-01-30T16:17:51;-10.75;71.41
72355;SHT30;60314;55.040;73.076;2023-01-30T16:22:55;-10.72;71.12
72355;SHT30;60314;55.040;73.076;2023-01-30T16:27:57;-10.82;70.80
72355;SHT30;60314;55.040;73.076;2023-01-30T16:33:08;-10.86;70.94
72355;SHT30;60314;55.040;73.076;2023-01-30T16:43:36;-10.97;71.78
72355;SHT30;60314;55.040;73.076;2023-01-30T16:48:53;-10.99;70.90
72355;SHT30;60314;55.040;73.076;2023-01-30T16:54:09;-11.23;70.73
72355;SHT30;60314;55.040;73.076;2023-01-30T16:59:25;-11.20;71.00
72355;SHT30;60314;55.040;73.076;2023-01-30T17:04:30;-11.38;71.20
72355;SHT30;60314;55.040;73.076;2023-01-30T17:09:38;-11.51;71.54
72355;SHT30;60314;55.040;73.076;2023-01-30T17:14:47;-11.62;71.07
72355;SHT30;60314;55.040;73.076;2023-01-30T17:19:49;-11.63;71.61
72355;SHT30;60314;55.040;73.076;2023-01-30T17:24:53;-11.71;71.11
72355;SHT30;60314;55.040;73.076;2023-01-30T17:30:16;-11.86;70.76
72355;SHT30;60314;55.040;73.076;2023-01-30T17:35:18;-12.03;70.96
72355;SHT30;60314;55.040;73.076;2023-01-30T17:40:21;-12.09;70.95
72355;SHT30;60314;55.040;73.076;2023-01-30T17:45:59;-12.41;71.22
72355;SHT30;60314;55.040;73.076;2023-01-30T17:51:01;-12.50;71.37
72355;SHT30;60314;55.040;73.076;2023-01-30T17:56:02;-12.58;71.22
72355;SHT30;60314;55.040;73.076;2023-01-30T18:01:03;-12.58;70.90
72355;SHT30;60314;55.040;73.076;2023-01-30T18:06:05;-12.61;71.25
72355;SHT30;60314;55.040;73.076;2023-01-30T18:11:16;-12.69;71.19
72355;SHT30;60314;55.040;73.076;2023-01-30T18:16:25;-13.03;71.25
72355;SHT30;60314;55.040;73.076;2023-01-30T18:21:31;-13.10;72.05
72355;SHT30;60314;55.040;73.076;2023-01-30T18:26:37;-13.27;72.07
72355;SHT30;60314;55.040;73.076;2023-01-30T18:31:40;-13.36;71.71
72355;SHT30;60314;55.040;73.076;2023-01-30T18:36:41;-13.46;71.90
72355;SHT30;60314;55.040;73.076;2023-01-30T18:41:42;-13.34;71.58
72355;SHT30;60314;55.040;73.076;2023-01-30T18:46:44;-13.34;71.02
72355;SHT30;60314;55.040;73.076;2023-01-30T18:51:55;-13.41;71.51
72355;SHT30;60314;55.040;73.076;2023-01-30T18:57:06;-13.33;71.16
72355;SHT30;60314;55.040;73.076;2023-01-30T19:02:10;-13.31;70.86
72355;SHT30;60314;55.040;73.076;2023-01-30T19:07:12;-13.30;70.44
72355;SHT30;60314;55.040;73.076;2023-01-30T19:12:18;-13.47;70.80
72355;SHT30;60314;55.040;73.076;2023-01-30T19:17:38;-13.51;71.07
72355;SHT30;60314;55.040;73.076;2023-01-30T19:22:39;-13.58;71.14
72355;SHT30;60314;55.040;73.076;2023-01-30T19:27:41;-13.41;70.86
72355;SHT30;60314;55.040;73.076;2023-01-30T19:32:44;-13.41;70.60
72355;SHT30;60314;55.040;73.076;2023-01-30T19:37:45;-13.43;70.23
72355;SHT30;60314;55.040;73.076;2023-01-30T19:42:46;-13.51;70.66
72355;SHT30;60314;55.040;73.076;2023-01-30T19:47:58;-13.47;70.50
72355;SHT30;60314;55.040;73.076;2023-01-30T19:53:10;-13.54;70.76
72355;SHT30;60314;55.040;73.076;2023-01-30T19:58:11;-13.48;70.56
72355;SHT30;60314;55.040;73.076;2023-01-30T20:03:22;-13.44;69.85
72355;SHT30;60314;55.040;73.076;2023-01-30T20:08:28;-13.46;69.97
72355;SHT30;60314;55.040;73.076;2023-01-30T20:13:29;-13.51;69.44
72355;SHT30;60314;55.040;73.076;2023-01-30T20:18:39;-13.58;69.80
72355;SHT30;60314;55.040;73.076;2023-01-30T20:23:41;-13.68;69.88
72355;SHT30;60314;55.040;73.076;2023-01-30T20:28:42;-13.71;69.99
72355;SHT30;60314;55.040;73.076;2023-01-30T20:33:44;-13.68;70.37
72355;SHT30;60314;55.040;73.076;2023-01-30T20:38:57;-13.70;69.95
72355;SHT30;60314;55.040;73.076;2023-01-30T20:44:11;-13.64;70.26
72355;SHT30;60314;55.040;73.076;2023-01-30T20:49:17;-13.60;70.07
72355;SHT30;60314;55.040;73.076;2023-01-30T20:54:23;-13.74;69.55
72355;SHT30;60314;55.040;73.076;2023-01-30T20:59:30;-13.67;70.02
72355;SHT30;60314;55.040;73.076;2023-01-30T21:04:31;-13.78;69.87
72355;SHT30;60314;55.040;73.076;2023-01-30T21:09:42;-13.71;70.41
72355;SHT30;60314;55.040;73.076;2023-01-30T21:14:43;-13.65;70.27
72355;SHT30;60314;55.040;73.076;2023-01-30T21:19:45;-13.74;70.11
72355;SHT30;60314;55.040;73.076;2023-01-30T21:24:46;-13.77;69.63
72355;SHT30;60314;55.040;73.076;2023-01-30T21:29:47;-13.85;69.30
72355;SHT30;60314;55.040;73.076;2023-01-30T21:34:49;-13.92;68.93
72355;SHT30;60314;55.040;73.076;2023-01-30T21:39:50;-14.02;68.54
72355;SHT30;60314;55.040;73.076;2023-01-30T21:45:10;-14.23;68.69
72355;SHT30;60314;55.040;73.076;2023-01-30T21:50:11;-14.39;69.00
72355;SHT30;60314;55.040;73.076;2023-01-30T21:55:13;-14.54;69.04
72355;SHT30;60314;55.040;73.076;2023-01-30T22:00:14;-14.74;68.95
72355;SHT30;60314;55.040;73.076;2023-01-30T22:05:58;-14.70;70.01
72355;SHT30;60314;55.040;73.076;2023-01-30T22:11:13;-14.60;70.20
72355;SHT30;60314;55.040;73.076;2023-01-30T22:16:21;-14.47;70.42
72355;SHT30;60314;55.040;73.076;2023-01-30T22:21:29;-14.34;70.70
72355;SHT30;60314;55.040;73.076;2023-01-30T22:26:36;-14.30;70.41
72355;SHT30;60314;55.040;73.076;2023-01-30T22:31:43;-14.34;70.32
72355;SHT30;60314;55.040;73.076;2023-01-30T22:36:54;-14.40;70.08
72355;SHT30;60314;55.040;73.076;2023-01-30T22:42:02;-14.53;70.11
72355;SHT30;60314;55.040;73.076;2023-01-30T22:47:03;-14.64;70.04
72355;SHT30;60314;55.040;73.076;2023-01-30T22:52:04;-14.78;69.14
72355;SHT30;60314;55.040;73.076;2023-01-30T22:57:15;-14.96;69.17
72355;SHT30;60314;55.040;73.076;2023-01-30T23:02:17;-15.11;69.81
72355;SHT30;60314;55.040;73.076;2023-01-30T23:07:18;-15.32;67.31
72355;SHT30;60314;55.040;73.076;2023-01-30T23:12:22;-15.66;66.42
72355;SHT30;60314;55.040;73.076;2023-01-30T23:17:41;-15.84;67.85
72355;SHT30;60314;55.040;73.076;2023-01-30T23:23:11;-15.80;70.03
72355;SHT30;60314;55.040;73.076;2023-01-30T23:28:14;-15.95;69.62
72355;SHT30;60314;55.040;73.076;2023-01-30T23:33:15;-15.98;70.13
72355;SHT30;60314;55.040;73.076;2023-01-30T23:38:17;-16.18;66.17
72355;SHT30;60314;55.040;73.076;2023-01-30T23:43:21;-16.52;64.25
72355;SHT30;60314;55.040;73.076;2023-01-30T23:48:23;-16.63;64.23
72355;SHT30;60314;55.040;73.076;2023-01-30T23:53:24;-16.80;65.71
72355;SHT30;60314;55.040;73.076;2023-01-30T23:58:26;-16.98;64.95
